sensor_id;sensor_type;location;lat;lon;timestamp;P1;durP1;ratioP1;P2;durP2;ratioP2
21315;SDS011;10817;55.820;13.030;2022-10-16T00:01:05;50.63;;;28.52;;
21315;SDS011;10817;55.820;13.030;2022-10-16T00:03:33;45.83;;;28.30;;
21315;SDS011;10817;55.820;13.030;2022-10-16T00:06:02;49.47;;;28.45;;
21315;SDS011;10817;55.820;13.030;2022-10-16T00:08:30;49.33;;;28.77;;
21315;SDS011;10817;55.820;13.030;2022-10-16T00:11:01;55.65;;;28.60;;
21315;SDS011;10817;55.820;13.030;2022-10-16T00:13:29;50.90;;;28.15;;
21315;SDS011;10817;55.820;13.030;2022-10-16T00:15:57;58.88;;;28.30;;
21315;SDS011;10817;55.820;13.030;2022-10-16T00:18:25;54.05;;;29.85;;
21315;SDS011;10817;55.820;13.030;2022-10-16T00:20:52;56.05;;;28.83;;
21315;SDS011;10817;55.820;13.030;2022-10-16T00:23:21;52.13;;;28.13;;
21315;SDS011;10817;55.820;13.030;2022-10-16T00:25:58;57.40;;;28.63;;
21315;SDS011;10817;55.820;13.030;2022-10-16T00:28:26;46.53;;;26.98;;
21315;SDS011;10817;55.820;13.030;2022-10-16T00:30:53;45.97;;;26.05;;
21315;SDS011;10817;55.820;13.030;2022-10-16T00:33:21;48.42;;;25.77;;
21315;SDS011;10817;55.820;13.030;2022-10-16T00:35:48;51.33;;;24.63;;
21315;SDS011;10817;55.820;13.030;2022-10-16T00:38:16;44.70;;;25.52;;
21315;SDS011;10817;55.820;13.030;2022-10-16T00:40:45;47.60;;;25.13;;
21315;SDS011;10817;55.820;13.030;2022-10-16T00:43:13;45.00;;;25.65;;
21315;SDS011;10817;55.820;13.030;2022-10-16T00:45:41;37.97;;;24.42;;
21315;SDS011;10817;55.820;13.030;2022-10-16T00:48:10;41.50;;;24.83;;
21315;SDS011;10817;55.820;13.030;2022-10-16T00:50:39;45.90;;;25.33;;
21315;SDS011;10817;55.820;13.030;2022-10-16T00:53:08;50.75;;;26.67;;
21315;SDS011;10817;55.820;13.030;2022-10-16T00:55:37;48.20;;;25.40;;
21315;SDS011;10817;55.820;13.030;2022-10-16T00:58:05;44.40;;;26.42;;
21315;SDS011;10817;55.820;13.030;2022-10-16T01:00:32;46.97;;;25.63;;
21315;SDS011;10817;55.820;13.030;2022-10-16T01:03:00;52.88;;;27.45;;
21315;SDS011;10817;55.820;13.030;2022-10-16T01:05:30;49.47;;;25.42;;
21315;SDS011;10817;55.820;13.030;2022-10-16T01:08:08;51.38;;;26.55;;
21315;SDS011;10817;55.820;13.030;2022-10-16T01:10:44;46.75;;;24.85;;
21315;SDS011;10817;55.820;13.030;2022-10-16T01:13:21;46.13;;;25.23;;
21315;SDS011;10817;55.820;13.030;2022-10-16T01:15:52;56.05;;;26.35;;
21315;SDS011;10817;55.820;13.030;2022-10-16T01:18:24;54.05;;;26.55;;
21315;SDS011;10817;55.820;13.030;2022-10-16T01:21:01;51.58;;;26.23;;
21315;SDS011;10817;55.820;13.030;2022-10-16T01:23:35;51.30;;;26.50;;
21315;SDS011;10817;55.820;13.030;2022-10-16T01:26:13;60.60;;;29.35;;
21315;SDS011;10817;55.820;13.030;2022-10-16T01:28:51;60.40;;;27.35;;
21315;SDS011;10817;55.820;13.030;2022-10-16T01:31:22;64.78;;;28.33;;
21315;SDS011;10817;55.820;13.030;2022-10-16T01:33:53;61.05;;;28.48;;
21315;SDS011;10817;55.820;13.030;2022-10-16T01:36:27;63.28;;;29.05;;
21315;SDS011;10817;55.820;13.030;2022-10-16T01:39:01;64.65;;;29.63;;
21315;SDS011;10817;55.820;13.030;2022-10-16T01:41:30;62.42;;;29.75;;
21315;SDS011;10817;55.820;13.030;2022-10-16T01:44:01;64.07;;;28.63;;
21315;SDS011;10817;55.820;13.030;2022-10-16T01:46:30;55.33;;;27.55;;
21315;SDS011;10817;55.820;13.030;2022-10-16T01:48:59;55.42;;;28.20;;
21315;SDS011;10817;55.820;13.030;2022-10-16T01:51:28;58.33;;;27.73;;
21315;SDS011;10817;55.820;13.030;2022-10-16T01:53:57;53.65;;;26.65;;
21315;SDS011;10817;55.820;13.030;2022-10-16T01:56:26;52.28;;;25.63;;
21315;SDS011;10817;55.820;13.030;2022-10-16T01:58:56;50.47;;;24.52;;
21315;SDS011;10817;55.820;13.030;2022-10-16T02:01:28;45.45;;;23.60;;
21315;SDS011;10817;55.820;13.030;2022-10-16T02:03:58;49.95;;;24.63;;
21315;SDS011;10817;55.820;13.030;2022-10-16T02:06:30;54.40;;;26.63;;
21315;SDS011;10817;55.820;13.030;2022-10-16T02:08:58;52.13;;;26.48;;
21315;SDS011;10817;55.820;13.030;2022-10-16T02:11:26;54.95;;;26.23;;
21315;SDS011;10817;55.820;13.030;2022-10-16T02:13:54;64.85;;;27.45;;
21315;SDS011;10817;55.820;13.030;2022-10-16T02:16:33;60.60;;;28.23;;
21315;SDS011;10817;55.820;13.030;2022-10-16T02:19:01;59.00;;;29.02;;
21315;SDS011;10817;55.820;13.030;2022-10-16T02:21:29;62.60;;;29.13;;
21315;SDS011;10817;55.820;13.030;2022-10-16T02:24:02;57.80;;;28.75;;
21315;SDS011;10817;55.820;13.030;2022-10-16T02:26:35;57.97;;;27.33;;
21315;SDS011;10817;55.820;13.030;2022-10-16T02:29:06;56.92;;;26.95;;
21315;SDS011;10817;55.820;13.030;2022-10-16T02:31:38;51.15;;;26.20;;
21315;SDS011;10817;55.820;13.030;2022-10-16T02:34:09;53.63;;;25.13;;
21315;SDS011;10817;55.820;13.030;2022-10-16T02:36:38;53.85;;;23.83;;
21315;SDS011;10817;55.820;13.030;2022-10-16T02:39:06;47.58;;;23.02;;
21315;SDS011;10817;55.820;13.030;2022-10-16T02:41:35;45.67;;;23.42;;
21315;SDS011;10817;55.820;13.030;2022-10-16T02:44:02;42.58;;;21.92;;
21315;SDS011;10817;55.820;13.030;2022-10-16T02:46:29;45.00;;;22.10;;
21315;SDS011;10817;55.820;13.030;2022-10-16T02:48:58;39.00;;;20.73;;
21315;SDS011;10817;55.820;13.030;2022-10-16T02:51:25;45.03;;;21.08;;
21315;SDS011;10817;55.820;13.030;2022-10-16T02:53:52;45.47;;;22.73;;
21315;SDS011;10817;55.820;13.030;2022-10-16T02:56:19;47.10;;;23.88;;
21315;SDS011;10817;55.820;13.030;2022-10-16T02:58:46;50.67;;;25.85;;
21315;SDS011;10817;55.820;13.030;2022-10-16T03:01:13;51.90;;;24.67;;
21315;SDS011;10817;55.820;13.030;2022-10-16T03:03:41;49.72;;;25.02;;
21315;SDS011;10817;55.820;13.030;2022-10-16T03:06:10;53.55;;;27.23;;
21315;SDS011;10817;55.820;13.030;2022-10-16T03:08:38;59.60;;;27.35;;
21315;SDS011;10817;55.820;13.030;2022-10-16T03:11:05;51.85;;;25.17;;
21315;SDS011;10817;55.820;13.030;2022-10-16T03:13:33;51.70;;;25.77;;
21315;SDS011;10817;55.820;13.030;2022-10-16T03:16:00;51.88;;;25.67;;
21315;SDS011;10817;55.820;13.030;2022-10-16T03:18:27;55.08;;;27.00;;
21315;SDS011;10817;55.820;13.030;2022-10-16T03:20:54;64.57;;;28.38;;
21315;SDS011;10817;55.820;13.030;2022-10-16T03:23:23;59.15;;;27.90;;
21315;SDS011;10817;55.820;13.030;2022-10-16T03:25:50;62.67;;;28.77;;
21315;SDS011;10817;55.820;13.030;2022-10-16T03:28:17;56.65;;;27.52;;
21315;SDS011;10817;55.820;13.030;2022-10-16T03:30:44;55.65;;;26.45;;
21315;SDS011;10817;55.820;13.030;2022-10-16T03:33:11;56.53;;;26.48;;
21315;SDS011;10817;55.820;13.030;2022-10-16T03:35:38;51.78;;;25.50;;
21315;SDS011;10817;55.820;13.030;2022-10-16T03:38:05;57.20;;;26.75;;
21315;SDS011;10817;55.820;13.030;2022-10-16T03:40:34;58.92;;;26.90;;
21315;SDS011;10817;55.820;13.030;2022-10-16T03:43:01;54.60;;;25.65;;
21315;SDS011;10817;55.820;13.030;2022-10-16T03:45:28;54.92;;;24.33;;
21315;SDS011;10817;55.820;13.030;2022-10-16T03:47:55;50.88;;;24.42;;
21315;SDS011;10817;55.820;13.030;2022-10-16T03:50:22;48.72;;;23.85;;
21315;SDS011;10817;55.820;13.030;2022-10-16T03:52:49;44.88;;;22.48;;
21315;SDS011;10817;55.820;13.030;2022-10-16T03:55:16;58.35;;;24.27;;
21315;SDS011;10817;55.820;13.030;2022-10-16T03:57:44;50.40;;;24.65;;
21315;SDS011;10817;55.820;13.030;2022-10-16T04:00:11;41.40;;;21.58;;
21315;SDS011;10817;55.820;13.030;2022-10-16T04:02:39;45.60;;;21.48;;
21315;SDS011;10817;55.820;13.030;2022-10-16T04:05:06;35.78;;;19.13;;
21315;SDS011;10817;55.820;13.030;2022-10-16T04:07:34;37.30;;;17.73;;
21315;SDS011;10817;55.820;13.030;2022-10-16T04:10:01;33.50;;;16.75;;
21315;SDS011;10817;55.820;13.030;2022-10-16T04:12:28;36.67;;;16.92;;
21315;SDS011;10817;55.820;13.030;2022-10-16T04:14:56;28.58;;;14.82;;
21315;SDS011;10817;55.820;13.030;2022-10-16T04:17:23;33.63;;;15.27;;
21315;SDS011;10817;55.820;13.030;2022-10-16T04:19:50;25.77;;;14.38;;
21315;SDS011;10817;55.820;13.030;2022-10-16T04:22:17;29.83;;;14.10;;
21315;SDS011;10817;55.820;13.030;2022-10-16T04:24:44;28.17;;;13.80;;
21315;SDS011;10817;55.820;13.030;2022-10-16T04:27:12;27.83;;;14.25;;
21315;SDS011;10817;55.820;13.030;2022-10-16T04:29:39;29.35;;;14.02;;
21315;SDS011;10817;55.820;13.030;2022-10-16T04:32:08;27.35;;;13.00;;
21315;SDS011;10817;55.820;13.030;2022-10-16T04:34:35;33.80;;;14.20;;
21315;SDS011;10817;55.820;13.030;2022-10-16T04:37:03;27.75;;;13.05;;
21315;SDS011;10817;55.820;13.030;2022-10-16T04:39:30;28.98;;;13.35;;
21315;SDS011;10817;55.820;13.030;2022-10-16T04:41:57;26.45;;;13.07;;
21315;SDS011;10817;55.820;13.030;2022-10-16T04:44:24;24.77;;;12.88;;
21315;SDS011;10817;55.820;13.030;2022-10-16T04:46:51;28.70;;;10.80;;
21315;SDS011;10817;55.820;13.030;2022-10-16T04:49:20;24.17;;;10.88;;
21315;SDS011;10817;55.820;13.030;2022-10-16T04:51:46;27.67;;;10.07;;
21315;SDS011;10817;55.820;13.030;2022-10-16T04:54:13;22.30;;;9.48;;
21315;SDS011;10817;55.820;13.030;2022-10-16T04:56:40;22.90;;;9.77;;
21315;SDS011;10817;55.820;13.030;2022-10-16T04:59:12;23.67;;;9.02;;
21315;SDS011;10817;55.820;13.030;2022-10-16T05:01:39;17.00;;;7.85;;
21315;SDS011;10817;55.820;13.030;2022-10-16T05:04:06;16.77;;;8.20;;
21315;SDS011;10817;55.820;13.030;2022-10-16T05:06:35;22.25;;;8.77;;
21315;SDS011;10817;55.820;13.030;2022-10-16T05:09:04;27.30;;;8.70;;
21315;SDS011;10817;55.820;13.030;2022-10-16T05:11:32;20.98;;;8.80;;
21315;SDS011;10817;55.820;13.030;2022-10-16T05:13:59;16.38;;;7.63;;
21315;SDS011;10817;55.820;13.030;2022-10-16T05:16:26;15.27;;;7.70;;
21315;SDS011;10817;55.820;13.030;2022-10-16T05:18:53;21.42;;;8.30;;
21315;SDS011;10817;55.820;13.030;2022-10-16T05:21:21;19.48;;;9.02;;
21315;SDS011;10817;55.820;13.030;2022-10-16T05:23:49;15.20;;;8.30;;
21315;SDS011;10817;55.820;13.030;2022-10-16T05:26:16;16.80;;;8.65;;
21315;SDS011;10817;55.820;13.030;2022-10-16T05:28:43;19.48;;;7.43;;
21315;SDS011;10817;55.820;13.030;2022-10-16T05:31:10;12.57;;;7.28;;
21315;SDS011;10817;55.820;13.030;2022-10-16T05:33:37;21.75;;;8.25;;
21315;SDS011;10817;55.820;13.030;2022-10-16T05:36:04;24.10;;;9.02;;
21315;SDS011;10817;55.820;13.030;2022-10-16T05:38:33;19.45;;;8.52;;
21315;SDS011;10817;55.820;13.030;2022-10-16T05:41:02;18.63;;;8.73;;
21315;SDS011;10817;55.820;13.030;2022-10-16T05:43:30;19.02;;;8.32;;
21315;SDS011;10817;55.820;13.030;2022-10-16T05:45:58;23.42;;;9.30;;
21315;SDS011;10817;55.820;13.030;2022-10-16T05:48:27;20.33;;;8.93;;
21315;SDS011;10817;55.820;13.030;2022-10-16T05:50:58;16.80;;;8.73;;
21315;SDS011;10817;55.820;13.030;2022-10-16T05:53:26;16.02;;;8.43;;
21315;SDS011;10817;55.820;13.030;2022-10-16T05:55:55;15.98;;;8.13;;
21315;SDS011;10817;55.820;13.030;2022-10-16T05:58:24;17.45;;;8.77;;
21315;SDS011;10817;55.820;13.030;2022-10-16T06:00:55;24.40;;;8.48;;
21315;SDS011;10817;55.820;13.030;2022-10-16T06:03:23;24.52;;;7.93;;
21315;SDS011;10817;55.820;13.030;2022-10-16T06:05:51;23.40;;;9.20;;
21315;SDS011;10817;55.820;13.030;2022-10-16T06:08:19;21.00;;;9.00;;
21315;SDS011;10817;55.820;13.030;2022-10-16T06:10:48;19.00;;;8.38;;
21315;SDS011;10817;55.820;13.030;2022-10-16T06:13:15;21.35;;;8.30;;
21315;SDS011;10817;55.820;13.030;2022-10-16T06:15:43;19.80;;;8.10;;
21315;SDS011;10817;55.820;13.030;2022-10-16T06:18:10;20.55;;;8.18;;
21315;SDS011;10817;55.820;13.030;2022-10-16T06:20:37;17.70;;;8.50;;
21315;SDS011;10817;55.820;13.030;2022-10-16T06:23:04;19.20;;;8.15;;
21315;SDS011;10817;55.820;13.030;2022-10-16T06:25:31;16.70;;;6.80;;
21315;SDS011;10817;55.820;13.030;2022-10-16T06:27:59;20.02;;;7.60;;
21315;SDS011;10817;55.820;13.030;2022-10-16T06:30:27;16.17;;;6.53;;
21315;SDS011;10817;55.820;13.030;2022-10-16T06:32:56;14.90;;;6.15;;
21315;SDS011;10817;55.820;13.030;2022-10-16T06:35:23;17.05;;;7.05;;
21315;SDS011;10817;55.820;13.030;2022-10-16T06:37:52;15.27;;;6.72;;
21315;SDS011;10817;55.820;13.030;2022-10-16T06:40:21;16.05;;;6.85;;
21315;SDS011;10817;55.820;13.030;2022-10-16T06:42:50;15.57;;;6.50;;
21315;SDS011;10817;55.820;13.030;2022-10-16T06:45:17;10.85;;;6.75;;
21315;SDS011;10817;55.820;13.030;2022-10-16T06:47:44;18.23;;;6.53;;
21315;SDS011;10817;55.820;13.030;2022-10-16T06:50:14;17.40;;;7.32;;
21315;SDS011;10817;55.820;13.030;2022-10-16T06:52:43;14.20;;;6.32;;
21315;SDS011;10817;55.820;13.030;2022-10-16T06:55:11;13.50;;;6.03;;
21315;SDS011;10817;55.820;13.030;2022-10-16T06:57:38;19.10;;;6.43;;
21315;SDS011;10817;55.820;13.030;2022-10-16T07:00:05;12.23;;;7.18;;
21315;SDS011;10817;55.820;13.030;2022-10-16T07:02:33;16.75;;;7.03;;
21315;SDS011;10817;55.820;13.030;2022-10-16T07:05:01;14.98;;;7.10;;
21315;SDS011;10817;55.820;13.030;2022-10-16T07:07:29;19.80;;;7.28;;
21315;SDS011;10817;55.820;13.030;2022-10-16T07:09:56;18.52;;;6.68;;
21315;SDS011;10817;55.820;13.030;2022-10-16T07:12:23;16.27;;;6.28;;
21315;SDS011;10817;55.820;13.030;2022-10-16T07:14:51;16.67;;;6.53;;
21315;SDS011;10817;55.820;13.030;2022-10-16T07:17:20;14.13;;;7.00;;
21315;SDS011;10817;55.820;13.030;2022-10-16T07:19:48;16.67;;;6.25;;
21315;SDS011;10817;55.820;13.030;2022-10-16T07:22:18;14.50;;;6.80;;
21315;SDS011;10817;55.820;13.030;2022-10-16T07:24:46;22.73;;;6.22;;
21315;SDS011;10817;55.820;13.030;2022-10-16T07:27:13;16.67;;;6.35;;
21315;SDS011;10817;55.820;13.030;2022-10-16T07:29:43;14.23;;;5.47;;
21315;SDS011;10817;55.820;13.030;2022-10-16T07:32:11;15.77;;;5.88;;
21315;SDS011;10817;55.820;13.030;2022-10-16T07:34:40;14.43;;;6.15;;
21315;SDS011;10817;55.820;13.030;2022-10-16T07:37:12;14.85;;;5.50;;
21315;SDS011;10817;55.820;13.030;2022-10-16T07:39:40;13.95;;;4.95;;
21315;SDS011;10817;55.820;13.030;2022-10-16T07:42:10;11.32;;;5.00;;
21315;SDS011;10817;55.820;13.030;2022-10-16T07:44:37;13.23;;;4.60;;
21315;SDS011;10817;55.820;13.030;2022-10-16T07:47:07;16.58;;;5.05;;
21315;SDS011;10817;55.820;13.030;2022-10-16T07:49:34;11.40;;;4.15;;
21315;SDS011;10817;55.820;13.030;2022-10-16T07:52:01;11.80;;;4.30;;
21315;SDS011;10817;55.820;13.030;2022-10-16T07:54:29;12.38;;;3.92;;
21315;SDS011;10817;55.820;13.030;2022-10-16T07:56:56;16.45;;;4.53;;
21315;SDS011;10817;55.820;13.030;2022-10-16T07:59:26;11.77;;;4.00;;
21315;SDS011;10817;55.820;13.030;2022-10-16T08:01:54;10.07;;;4.10;;
21315;SDS011;10817;55.820;13.030;2022-10-16T08:04:21;14.25;;;4.38;;
21315;SDS011;10817;55.820;13.030;2022-10-16T08:06:49;12.15;;;4.22;;
21315;SDS011;10817;55.820;13.030;2022-10-16T08:09:16;13.20;;;4.20;;
21315;SDS011;10817;55.820;13.030;2022-10-16T08:11:43;10.80;;;3.97;;
21315;SDS011;10817;55.820;13.030;2022-10-16T08:14:10;5.45;;;3.55;;
21315;SDS011;10817;55.820;13.030;2022-10-16T08:16:42;10.82;;;3.80;;
21315;SDS011;10817;55.820;13.030;2022-10-16T08:19:12;8.40;;;3.55;;
21315;SDS011;10817;55.820;13.030;2022-10-16T08:21:41;12.73;;;3.65;;
21315;SDS011;10817;55.820;13.030;2022-10-16T08:24:08;10.82;;;2.92;;
21315;SDS011;10817;55.820;13.030;2022-10-16T08:26:35;13.55;;;3.60;;
21315;SDS011;10817;55.820;13.030;2022-10-16T08:29:03;7.78;;;3.17;;
21315;SDS011;10817;55.820;13.030;2022-10-16T08:31:31;14.60;;;3.10;;
21315;SDS011;10817;55.820;13.030;2022-10-16T08:34:00;6.43;;;2.70;;
21315;SDS011;10817;55.820;13.030;2022-10-16T08:36:27;11.55;;;3.40;;
21315;SDS011;10817;55.820;13.030;2022-10-16T08:38:54;7.97;;;2.90;;
21315;SDS011;10817;55.820;13.030;2022-10-16T08:41:33;9.05;;;3.30;;
21315;SDS011;10817;55.820;13.030;2022-10-16T08:44:37;12.48;;;3.80;;
21315;SDS011;10817;55.820;13.030;2022-10-16T08:47:34;12.95;;;3.30;;
21315;SDS011;10817;55.820;13.030;2022-10-16T08:50:10;7.93;;;3.00;;
21315;SDS011;10817;55.820;13.030;2022-10-16T08:52:40;7.35;;;2.75;;
21315;SDS011;10817;55.820;13.030;2022-10-16T08:55:16;9.85;;;2.67;;
21315;SDS011;10817;55.820;13.030;2022-10-16T08:57:56;8.82;;;2.60;;
21315;SDS011;10817;55.820;13.030;2022-10-16T09:00:23;9.98;;;2.60;;
21315;SDS011;10817;55.820;13.030;2022-10-16T09:02:53;8.30;;;2.53;;
21315;SDS011;10817;55.820;13.030;2022-10-16T09:05:38;8.30;;;2.40;;
21315;SDS011;10817;55.820;13.030;2022-10-16T09:08:20;8.45;;;2.47;;
21315;SDS011;10817;55.820;13.030;2022-10-16T09:10:56;9.05;;;2.78;;
21315;SDS011;10817;55.820;13.030;2022-10-16T09:13:32;7.45;;;2.22;;
21315;SDS011;10817;55.820;13.030;2022-10-16T09:16:10;12.05;;;2.20;;
21315;SDS011;10817;55.820;13.030;2022-10-16T09:18:45;8.68;;;2.53;;
21315;SDS011;10817;55.820;13.030;2022-10-16T09:21:21;8.40;;;2.00;;
21315;SDS011;10817;55.820;13.030;2022-10-16T09:23:52;8.60;;;2.55;;
21315;SDS011;10817;55.820;13.030;2022-10-16T09:26:23;11.05;;;3.92;;
21315;SDS011;10817;55.820;13.030;2022-10-16T09:28:51;21.30;;;10.82;;
21315;SDS011;10817;55.820;13.030;2022-10-16T09:31:19;20.38;;;9.10;;
21315;SDS011;10817;55.820;13.030;2022-10-16T09:33:48;4.88;;;2.88;;
21315;SDS011;10817;55.820;13.030;2022-10-16T09:36:22;11.20;;;4.10;;
21315;SDS011;10817;55.820;13.030;2022-10-16T09:39:01;26.85;;;15.57;;
21315;SDS011;10817;55.820;13.030;2022-10-16T09:41:29;11.27;;;4.35;;
21315;SDS011;10817;55.820;13.030;2022-10-16T09:43:57;15.35;;;7.68;;
21315;SDS011;10817;55.820;13.030;2022-10-16T09:46:28;10.10;;;4.20;;
21315;SDS011;10817;55.820;13.030;2022-10-16T09:48:58;12.13;;;5.82;;
21315;SDS011;10817;55.820;13.030;2022-10-16T09:51:28;11.75;;;3.42;;
21315;SDS011;10817;55.820;13.030;2022-10-16T09:53:59;10.18;;;3.20;;
21315;SDS011;10817;55.820;13.030;2022-10-16T09:56:28;12.82;;;2.10;;
21315;SDS011;10817;55.820;13.030;2022-10-16T09:58:57;8.25;;;3.15;;
21315;SDS011;10817;55.820;13.030;2022-10-16T10:01:30;14.65;;;3.95;;
21315;SDS011;10817;55.820;13.030;2022-10-16T10:04:02;7.97;;;1.90;;
21315;SDS011;10817;55.820;13.030;2022-10-16T10:06:33;7.13;;;2.03;;
21315;SDS011;10817;55.820;13.030;2022-10-16T10:09:04;7.72;;;1.92;;
21315;SDS011;10817;55.820;13.030;2022-10-16T10:11:47;4.50;;;1.55;;
21315;SDS011;10817;55.820;13.030;2022-10-16T10:14:17;5.38;;;1.38;;
21315;SDS011;10817;55.820;13.030;2022-10-16T10:16:50;4.68;;;1.20;;
21315;SDS011;10817;55.820;13.030;2022-10-16T10:19:19;9.98;;;1.60;;
21315;SDS011;10817;55.820;13.030;2022-10-16T10:21:49;6.55;;;1.48;;
21315;SDS011;10817;55.820;13.030;2022-10-16T10:24:18;5.93;;;1.52;;
21315;SDS011;10817;55.820;13.030;2022-10-16T10:26:49;6.50;;;1.60;;
21315;SDS011;10817;55.820;13.030;2022-10-16T10:29:28;4.70;;;1.60;;
21315;SDS011;10817;55.820;13.030;2022-10-16T10:32:11;6.22;;;1.30;;
21315;SDS011;10817;55.820;13.030;2022-10-16T10:34:56;6.28;;;1.98;;
21315;SDS011;10817;55.820;13.030;2022-10-16T10:37:46;5.60;;;1.45;;
21315;SDS011;10817;55.820;13.030;2022-10-16T10:40:24;5.72;;;1.40;;
21315;SDS011;10817;55.820;13.030;2022-10-16T10:43:04;5.60;;;1.30;;
21315;SDS011;10817;55.820;13.030;2022-10-16T10:45:38;5.55;;;1.67;;
21315;SDS011;10817;55.820;13.030;2022-10-16T10:48:13;6.32;;;1.50;;
21315;SDS011;10817;55.820;13.030;2022-10-16T10:50:51;5.05;;;1.75;;
21315;SDS011;10817;55.820;13.030;2022-10-16T10:53:32;5.32;;;1.85;;
21315;SDS011;10817;55.820;13.030;2022-10-16T10:56:08;6.95;;;1.67;;
21315;SDS011;10817;55.820;13.030;2022-10-16T10:58:53;6.13;;;1.50;;
21315;SDS011;10817;55.820;13.030;2022-10-16T11:01:35;8.05;;;1.90;;
21315;SDS011;10817;55.820;13.030;2022-10-16T11:04:15;6.30;;;1.40;;
21315;SDS011;10817;55.820;13.030;2022-10-16T11:06:55;6.47;;;1.70;;
21315;SDS011;10817;55.820;13.030;2022-10-16T11:09:28;9.65;;;1.98;;
21315;SDS011;10817;55.820;13.030;2022-10-16T11:12:02;8.40;;;1.80;;
21315;SDS011;10817;55.820;13.030;2022-10-16T11:14:35;6.53;;;1.70;;
21315;SDS011;10817;55.820;13.030;2022-10-16T11:17:08;6.82;;;1.60;;
21315;SDS011;10817;55.820;13.030;2022-10-16T11:19:39;9.15;;;2.00;;
21315;SDS011;10817;55.820;13.030;2022-10-16T11:22:15;10.07;;;1.83;;
21315;SDS011;10817;55.820;13.030;2022-10-16T11:24:50;7.53;;;1.92;;
21315;SDS011;10817;55.820;13.030;2022-10-16T11:27:23;8.63;;;1.98;;
21315;SDS011;10817;55.820;13.030;2022-10-16T11:29:58;5.15;;;1.63;;
21315;SDS011;10817;55.820;13.030;2022-10-16T11:32:33;8.35;;;1.67;;
21315;SDS011;10817;55.820;13.030;2022-10-16T11:35:15;10.23;;;1.75;;
21315;SDS011;10817;55.820;13.030;2022-10-16T11:37:49;9.37;;;2.03;;
21315;SDS011;10817;55.820;13.030;2022-10-16T11:40:23;8.32;;;1.80;;
21315;SDS011;10817;55.820;13.030;2022-10-16T11:42:54;9.00;;;1.80;;
21315;SDS011;10817;55.820;13.030;2022-10-16T11:45:27;7.18;;;1.95;;
21315;SDS011;10817;55.820;13.030;2022-10-16T11:48:02;8.40;;;2.03;;
21315;SDS011;10817;55.820;13.030;2022-10-16T11:50:38;9.38;;;1.85;;
21315;SDS011;10817;55.820;13.030;2022-10-16T11:53:13;9.70;;;1.90;;
21315;SDS011;10817;55.820;13.030;2022-10-16T11:55:50;7.57;;;2.15;;
21315;SDS011;10817;55.820;13.030;2022-10-16T11:58:20;10.07;;;2.75;;
21315;SDS011;10817;55.820;13.030;2022-10-16T12:00:53;6.85;;;1.65;;
21315;SDS011;10817;55.820;13.030;2022-10-16T12:03:26;6.65;;;1.77;;
21315;SDS011;10817;55.820;13.030;2022-10-16T12:06:03;7.53;;;1.92;;
21315;SDS011;10817;55.820;13.030;2022-10-16T12:08:38;8.40;;;2.17;;
21315;SDS011;10817;55.820;13.030;2022-10-16T12:11:09;8.33;;;1.80;;
21315;SDS011;10817;55.820;13.030;2022-10-16T12:13:48;7.67;;;1.60;;
21315;SDS011;10817;55.820;13.030;2022-10-16T12:16:20;8.23;;;1.80;;
21315;SDS011;10817;55.820;13.030;2022-10-16T12:19:02;7.78;;;1.65;;
21315;SDS011;10817;55.820;13.030;2022-10-16T12:21:36;7.75;;;1.65;;
21315;SDS011;10817;55.820;13.030;2022-10-16T12:24:05;5.63;;;1.65;;
21315;SDS011;10817;55.820;13.030;2022-10-16T12:26:37;6.85;;;1.50;;
21315;SDS011;10817;55.820;13.030;2022-10-16T12:29:12;6.70;;;1.85;;
21315;SDS011;10817;55.820;13.030;2022-10-16T12:31:46;9.35;;;2.20;;
21315;SDS011;10817;55.820;13.030;2022-10-16T12:34:21;6.43;;;1.70;;
21315;SDS011;10817;55.820;13.030;2022-10-16T12:36:54;8.88;;;2.30;;
21315;SDS011;10817;55.820;13.030;2022-10-16T12:39:33;5.63;;;1.40;;
21315;SDS011;10817;55.820;13.030;2022-10-16T12:42:05;8.07;;;1.65;;
21315;SDS011;10817;55.820;13.030;2022-10-16T12:45:21;7.63;;;1.90;;
21315;SDS011;10817;55.820;13.030;2022-10-16T12:47:52;8.00;;;1.67;;
21315;SDS011;10817;55.820;13.030;2022-10-16T12:50:27;12.02;;;2.35;;
21315;SDS011;10817;55.820;13.030;2022-10-16T12:52:57;5.90;;;1.50;;
21315;SDS011;10817;55.820;13.030;2022-10-16T12:55:24;9.02;;;2.10;;
21315;SDS011;10817;55.820;13.030;2022-10-16T12:58:08;11.05;;;2.10;;
21315;SDS011;10817;55.820;13.030;2022-10-16T13:00:45;8.50;;;1.92;;
21315;SDS011;10817;55.820;13.030;2022-10-16T13:06:14;13.90;;;2.05;;
21315;SDS011;10817;55.820;13.030;2022-10-16T13:09:00;12.20;;;1.70;;
21315;SDS011;10817;55.820;13.030;2022-10-16T13:11:38;6.88;;;1.70;;
21315;SDS011;10817;55.820;13.030;2022-10-16T13:14:31;10.63;;;2.10;;
21315;SDS011;10817;55.820;13.030;2022-10-16T13:17:15;12.90;;;2.60;;
21315;SDS011;10817;55.820;13.030;2022-10-16T13:19:50;9.30;;;2.22;;
21315;SDS011;10817;55.820;13.030;2022-10-16T13:22:27;8.00;;;1.95;;
21315;SDS011;10817;55.820;13.030;2022-10-16T13:25:04;10.80;;;2.42;;
21315;SDS011;10817;55.820;13.030;2022-10-16T13:27:46;9.88;;;1.77;;
21315;SDS011;10817;55.820;13.030;2022-10-16T13:30:22;10.88;;;2.92;;
21315;SDS011;10817;55.820;13.030;2022-10-16T13:32:55;8.30;;;1.70;;
21315;SDS011;10817;55.820;13.030;2022-10-16T13:35:29;8.75;;;2.33;;
21315;SDS011;10817;55.820;13.030;2022-10-16T13:38:04;11.52;;;3.05;;
21315;SDS011;10817;55.820;13.030;2022-10-16T13:40:49;8.77;;;2.35;;
21315;SDS011;10817;55.820;13.030;2022-10-16T13:43:18;10.85;;;2.33;;
21315;SDS011;10817;55.820;13.030;2022-10-16T13:45:57;11.00;;;2.25;;
21315;SDS011;10817;55.820;13.030;2022-10-16T13:48:27;10.18;;;2.40;;
21315;SDS011;10817;55.820;13.030;2022-10-16T13:51:01;12.25;;;2.13;;
21315;SDS011;10817;55.820;13.030;2022-10-16T13:53:33;12.60;;;2.50;;
21315;SDS011;10817;55.820;13.030;2022-10-16T13:56:02;10.45;;;2.50;;
21315;SDS011;10817;55.820;13.030;2022-10-16T13:58:31;13.73;;;2.78;;
21315;SDS011;10817;55.820;13.030;2022-10-16T14:01:00;18.77;;;3.20;;
21315;SDS011;10817;55.820;13.030;2022-10-16T14:03:30;11.75;;;2.50;;
21315;SDS011;10817;55.820;13.030;2022-10-16T14:06:01;16.98;;;2.65;;
21315;SDS011;10817;55.820;13.030;2022-10-16T14:08:30;14.88;;;2.67;;
21315;SDS011;10817;55.820;13.030;2022-10-16T14:10:58;24.27;;;3.33;;
21315;SDS011;10817;55.820;13.030;2022-10-16T14:13:29;23.02;;;3.15;;
21315;SDS011;10817;55.820;13.030;2022-10-16T14:16:02;14.48;;;3.00;;
21315;SDS011;10817;55.820;13.030;2022-10-16T14:18:33;14.23;;;2.50;;
21315;SDS011;10817;55.820;13.030;2022-10-16T14:21:04;13.38;;;2.67;;
21315;SDS011;10817;55.820;13.030;2022-10-16T14:23:34;13.45;;;2.13;;
21315;SDS011;10817;55.820;13.030;2022-10-16T14:26:16;14.43;;;2.10;;
21315;SDS011;10817;55.820;13.030;2022-10-16T14:28:45;8.75;;;2.20;;
21315;SDS011;10817;55.820;13.030;2022-10-16T14:31:22;12.30;;;2.17;;
21315;SDS011;10817;55.820;13.030;2022-10-16T14:33:53;10.10;;;2.55;;
21315;SDS011;10817;55.820;13.030;2022-10-16T14:36:20;8.88;;;1.90;;
21315;SDS011;10817;55.820;13.030;2022-10-16T14:38:49;11.45;;;3.17;;
21315;SDS011;10817;55.820;13.030;2022-10-16T14:41:22;9.38;;;2.00;;
21315;SDS011;10817;55.820;13.030;2022-10-16T14:43:51;10.82;;;2.70;;
21315;SDS011;10817;55.820;13.030;2022-10-16T14:46:27;9.15;;;1.98;;